createdAt,value
2022-11-24T00:01:13.167Z,99108.94
2022-11-24T00:03:40.367Z,99104.53
2022-11-24T00:06:15.349Z,99096.81
2022-11-24T00:08:44.632Z,99090.81
2022-11-24T00:11:15.408Z,99091.69
2022-11-24T00:13:43.194Z,99083.84
2022-11-24T00:16:11.861Z,99084.03
2022-11-24T00:18:40.369Z,99070.03
2022-11-24T00:21:07.663Z,99078.06
2022-11-24T00:23:35.637Z,99053.03
2022-11-24T00:26:10.320Z,99058.84
2022-11-24T00:28:38.328Z,99058.13
2022-11-24T00:31:17.161Z,99054.91
2022-11-24T00:33:45.426Z,99048.63
2022-11-24T00:36:12.559Z,99045.25
2022-11-24T00:38:39.649Z,99042.50
2022-11-24T00:41:07.032Z,99040.72
2022-11-24T00:43:34.273Z,99036.38
2022-11-24T00:46:01.375Z,99038.00
2022-11-24T00:48:28.850Z,99036.19
2022-11-24T00:51:10.269Z,99040.47
2022-11-24T00:53:37.835Z,99041.44
2022-11-24T00:56:05.888Z,99034.63
2022-11-24T00:58:33.846Z,99033.56
2022-11-24T01:01:06.586Z,99031.69
2022-11-24T01:03:34.424Z,99024.84
2022-11-24T01:06:10.385Z,99029.13
2022-11-24T01:08:38.548Z,99030.09
2022-11-24T01:11:25.545Z,99021.56
2022-11-24T01:13:55.709Z,99021.41
2022-11-24T01:16:24.419Z,99014.47
2022-11-24T01:18:52.277Z,99003.13
2022-11-24T01:21:19.527Z,99001.50
2022-11-24T01:23:46.864Z,98996.19
2022-11-24T01:26:19.860Z,98990.09
2022-11-24T01:28:47.938Z,98982.22
2022-11-24T01:31:16.346Z,98986.63
2022-11-24T01:33:43.544Z,98977.94
2022-11-24T01:36:10.583Z,98974.53
2022-11-24T01:38:37.708Z,98963.19
2022-11-24T01:41:06.234Z,98966.53
2022-11-24T01:43:34.212Z,98964.25
2022-11-24T01:46:16.446Z,98945.28
2022-11-24T01:48:49.395Z,98944.25
2022-11-24T01:51:27.032Z,98951.34
2022-11-24T01:53:59.666Z,98946.78
2022-11-24T01:56:27.804Z,98957.16
2022-11-24T01:58:59.293Z,98945.84
2022-11-24T02:01:27.961Z,98927.81
2022-11-24T02:03:56.494Z,98917.34
2022-11-24T02:06:27.567Z,98922.16
2022-11-24T02:08:59.633Z,98913.44
2022-11-24T02:11:30.979Z,98900.50
2022-11-24T02:13:58.185Z,98898.91
2022-11-24T02:16:25.860Z,98894.28
2022-11-24T02:18:53.282Z,98891.50
2022-11-24T02:21:20.322Z,98906.97
2022-11-24T02:23:47.307Z,98884.25
2022-11-24T02:26:41.609Z,98888.47
2022-11-24T02:29:10.552Z,98875.50
2022-11-24T02:31:39.051Z,98890.16
2022-11-24T02:34:06.166Z,98884.00
2022-11-24T02:36:33.150Z,98867.44
2022-11-24T02:39:00.144Z,98872.59
2022-11-24T02:41:29.006Z,98879.72
2022-11-24T02:43:58.720Z,98879.53
2022-11-24T02:46:26.197Z,98886.34
2022-11-24T02:48:53.609Z,98884.75
2022-11-24T02:51:20.644Z,98888.13
2022-11-24T02:53:47.654Z,98878.69
2022-11-24T02:56:14.667Z,98880.03
2022-11-24T02:58:41.658Z,98880.03
2022-11-24T03:01:08.988Z,98873.16
2022-11-24T03:03:36.164Z,98879.06
2022-11-24T03:06:03.181Z,98873.00
2022-11-24T03:08:30.440Z,98850.59
2022-11-24T03:10:57.440Z,98849.84
2022-11-24T03:13:24.530Z,98864.53
2022-11-24T03:15:51.558Z,98865.38
2022-11-24T03:18:18.853Z,98870.50
2022-11-24T03:20:45.970Z,98866.00
2022-11-24T03:23:12.963Z,98855.53
2022-11-24T03:25:40.064Z,98859.00
2022-11-24T03:28:07.248Z,98864.16
2022-11-24T03:30:34.311Z,98872.84
2022-11-24T03:33:01.239Z,98873.75
2022-11-24T03:35:28.311Z,98873.69
2022-11-24T03:37:55.330Z,98868.28
2022-11-24T03:40:22.451Z,98865.66
2022-11-24T03:42:49.525Z,98865.69
2022-11-24T03:46:12.466Z,98857.16
2022-11-24T03:48:03.734Z,98875.50
2022-11-24T03:50:30.814Z,98870.13
2022-11-24T03:52:58.082Z,98854.69
2022-11-24T03:55:25.130Z,98865.84
2022-11-24T03:57:52.140Z,98874.38
2022-11-24T04:00:19.279Z,98872.50
2022-11-24T04:02:46.396Z,98881.16
2022-11-24T04:05:13.484Z,98882.00
2022-11-24T04:07:40.764Z,98877.69
2022-11-24T04:10:08.134Z,98889.72
2022-11-24T04:12:44.148Z,98882.00
2022-11-24T04:15:13.586Z,98890.63
2022-11-24T04:17:40.914Z,98889.75
2022-11-24T04:20:09.371Z,98886.13
2022-11-24T04:22:36.656Z,98893.03
2022-11-24T04:25:04.599Z,98888.75
2022-11-24T04:27:33.830Z,98897.28
2022-11-24T04:30:01.037Z,98900.69
2022-11-24T04:32:28.653Z,98894.59
2022-11-24T04:34:55.810Z,98899.03
2022-11-24T04:37:23.085Z,98897.22
2022-11-24T04:39:50.386Z,98896.34
2022-11-24T04:42:17.453Z,98897.34
2022-11-24T04:44:44.556Z,98898.09
2022-11-24T04:47:21.310Z,98898.06
2022-11-24T04:49:51.183Z,98889.47
2022-11-24T04:52:20.160Z,98890.22
2022-11-24T04:54:48.001Z,98891.91
2022-11-24T04:57:25.553Z,98892.72
2022-11-24T04:59:52.982Z,98897.13
2022-11-24T05:02:20.661Z,98889.28
2022-11-24T05:04:48.579Z,98891.06
2022-11-24T05:07:19.070Z,98887.78
2022-11-24T05:10:06.013Z,98890.31
2022-11-24T05:12:33.233Z,98895.53
2022-11-24T05:15:04.647Z,98892.75
2022-11-24T05:17:34.420Z,98897.16
2022-11-24T05:20:02.074Z,98890.28
2022-11-24T05:22:29.960Z,98899.78
2022-11-24T05:24:57.103Z,98904.88
2022-11-24T05:27:24.136Z,98901.41
2022-11-24T05:29:51.211Z,98905.81
2022-11-24T05:32:18.283Z,98910.16
2022-11-24T05:34:45.433Z,98917.91
2022-11-24T05:40:15.406Z,98925.78
2022-11-24T05:46:17.022Z,98921.38
2022-11-24T05:48:45.317Z,98932.72
2022-11-24T05:51:12.899Z,98938.75
2022-11-24T05:53:40.786Z,98930.13
2022-11-24T05:56:08.749Z,98937.91
2022-11-24T05:58:36.557Z,98934.38
2022-11-24T06:01:07.491Z,98937.00
2022-11-24T06:38:53.162Z,98924.22
2022-11-24T06:41:21.061Z,98927.84
2022-11-24T06:43:48.881Z,98935.59
2022-11-24T06:49:12.314Z,98940.69
2022-11-24T06:51:39.935Z,98943.19
2022-11-24T06:54:08.184Z,98942.22
2022-11-24T06:56:35.533Z,98941.41
2022-11-24T07:01:57.708Z,98945.66
2022-11-24T07:04:24.911Z,98936.03
2022-11-24T07:06:51.936Z,98932.47
2022-11-24T07:09:18.990Z,98928.19
2022-11-24T07:11:46.147Z,98923.06
2022-11-24T07:14:13.304Z,98925.63
2022-11-24T07:16:40.842Z,98918.50
2022-11-24T07:19:10.635Z,98918.50
2022-11-24T07:21:37.664Z,98919.28
2022-11-24T07:24:05.144Z,98921.91
2022-11-24T07:26:37.192Z,98919.19
2022-11-24T07:29:05.428Z,98919.06
2022-11-24T07:31:32.665Z,98918.16
2022-11-24T07:33:59.725Z,98918.88
2022-11-24T07:36:26.848Z,98924.19
2022-11-24T07:38:53.993Z,98920.75
2022-11-24T07:41:21.128Z,98919.78
2022-11-24T07:43:49.120Z,98921.56
2022-11-24T07:46:19.367Z,98919.75
2022-11-24T07:48:47.005Z,98920.47
2022-11-24T07:51:14.033Z,98922.22
2022-11-24T07:53:41.149Z,98917.81
2022-11-24T07:56:09.764Z,98923.13
2022-11-24T07:58:37.607Z,98915.22
2022-11-24T08:01:16.401Z,98924.03
2022-11-24T08:03:45.004Z,98916.28
2022-11-24T08:06:35.885Z,98923.25
2022-11-24T08:09:00.030Z,98923.44
2022-11-24T08:11:27.922Z,98922.34
2022-11-24T08:13:54.869Z,98930.19
2022-11-24T08:16:21.827Z,98935.34
2022-11-24T08:18:56.242Z,98935.38
2022-11-24T08:21:24.429Z,98933.56
2022-11-24T08:23:56.441Z,98932.59
2022-11-24T08:26:26.499Z,98928.28
2022-11-24T08:28:57.284Z,98927.41
2022-11-24T08:31:27.785Z,98933.44
2022-11-24T08:33:56.894Z,98938.66
2022-11-24T08:36:25.099Z,98928.19
2022-11-24T08:38:58.669Z,98934.38
2022-11-24T08:41:28.781Z,98927.41
2022-11-24T08:43:57.051Z,98920.41
2022-11-24T08:46:26.487Z,98923.00
2022-11-24T08:48:56.736Z,98917.00
2022-11-24T08:51:27.719Z,98924.75
2022-11-24T08:54:01.199Z,98925.81
2022-11-24T08:56:32.234Z,98916.28
2022-11-24T08:59:01.303Z,98915.44
2022-11-24T09:01:32.901Z,98920.72
2022-11-24T09:04:00.823Z,98913.66
2022-11-24T09:06:32.034Z,98919.66
2022-11-24T09:09:00.466Z,98920.81
2022-11-24T09:11:28.297Z,98924.06
2022-11-24T09:14:00.705Z,98922.25
2022-11-24T09:16:32.509Z,98911.81
2022-11-24T09:19:05.509Z,98919.81
2022-11-24T09:21:38.089Z,98915.25
2022-11-24T09:24:10.346Z,98913.59
2022-11-24T09:26:46.090Z,98910.13
2022-11-24T09:29:15.792Z,98917.28
2022-11-24T09:31:44.121Z,98907.44
2022-11-24T09:34:16.284Z,98910.06
2022-11-24T09:36:44.548Z,98907.63
2022-11-24T09:39:12.829Z,98909.25
2022-11-24T09:41:55.960Z,98901.22
2022-11-24T09:45:00.297Z,98900.41
2022-11-24T09:47:56.144Z,98897.66
2022-11-24T09:50:32.186Z,98892.50
2022-11-24T09:53:18.450Z,98892.38
2022-11-24T09:56:04.343Z,98893.19
2022-11-24T09:58:54.068Z,98888.22
2022-11-24T10:01:31.877Z,98891.72
2022-11-24T10:04:06.302Z,98895.00
2022-11-24T10:06:48.994Z,98897.56
2022-11-24T10:09:36.706Z,98886.94
2022-11-24T10:12:10.813Z,98901.50
2022-11-24T10:15:14.800Z,98909.03
2022-11-24T10:18:05.157Z,98902.91
2022-11-24T10:20:56.137Z,98896.81
2022-11-24T10:23:46.862Z,98907.19
2022-11-24T10:26:48.112Z,98902.53
2022-11-24T10:29:42.144Z,98899.72
2022-11-24T10:32:43.202Z,98896.16
2022-11-24T10:35:23.936Z,98909.16
2022-11-24T10:38:00.728Z,98892.41
2022-11-24T10:43:29.735Z,98895.06
2022-11-24T10:46:16.386Z,98887.16
2022-11-24T10:49:07.198Z,98895.03
2022-11-24T10:51:46.587Z,98889.03
2022-11-24T10:54:22.498Z,98900.06
2022-11-24T10:56:54.868Z,98896.63
2022-11-24T10:59:31.345Z,98905.34
2022-11-24T11:02:02.915Z,98906.94
2022-11-24T11:04:35.204Z,98903.44
2022-11-24T11:07:11.828Z,98904.38
2022-11-24T11:09:41.080Z,98900.78
2022-11-24T11:12:43.489Z,98906.91
2022-11-24T11:15:35.097Z,98903.75
2022-11-24T11:18:08.748Z,98907.75
2022-11-24T11:20:38.575Z,98906.72
2022-11-24T11:23:39.713Z,98908.34
2022-11-24T11:26:58.606Z,98909.50
2022-11-24T11:35:14.539Z,98910.22
2022-11-24T11:37:45.658Z,98905.81
2022-11-24T11:40:24.203Z,98910.44
2022-11-24T11:43:06.863Z,98905.44
2022-11-24T11:45:38.518Z,98904.94
2022-11-24T11:48:18.493Z,98899.06
2022-11-24T11:54:18.139Z,98903.44
2022-11-24T11:56:52.257Z,98889.78
2022-11-24T11:59:40.089Z,98900.50
2022-11-24T12:02:23.812Z,98896.84
2022-11-24T12:04:59.493Z,98897.84
2022-11-24T12:07:47.412Z,98897.22
2022-11-24T12:10:25.251Z,98898.75
2022-11-24T12:13:19.513Z,98904.44
2022-11-24T12:15:50.290Z,98904.84
2022-11-24T12:18:55.912Z,98907.41
2022-11-24T12:21:26.462Z,98900.78
2022-11-24T12:24:18.999Z,98905.94
2022-11-24T12:26:53.686Z,98905.69
2022-11-24T12:29:33.009Z,98905.78
2022-11-24T12:32:47.918Z,98903.25
2022-11-24T12:35:37.708Z,98908.06
2022-11-24T12:38:28.270Z,98906.53
2022-11-24T12:41:33.248Z,98902.31
2022-11-24T12:43:53.306Z,98905.16
2022-11-24T12:46:45.355Z,98899.81
2022-11-24T12:49:47.455Z,98905.47
2022-11-24T12:52:18.366Z,98917.38
2022-11-24T12:54:46.693Z,98918.50
2022-11-24T12:57:34.789Z,98923.84
2022-11-24T13:00:17.205Z,98929.16
2022-11-24T13:02:56.615Z,98926.75
2022-11-24T13:05:23.567Z,98931.13
2022-11-24T13:08:01.074Z,98937.06
2022-11-24T13:13:30.256Z,98939.84
2022-11-24T13:16:35.153Z,98945.03
2022-11-24T13:19:02.853Z,98942.28
2022-11-24T13:21:45.990Z,98941.66
2022-11-24T13:24:19.202Z,98939.00
2022-11-24T13:26:49.101Z,98954.81
2022-11-24T13:29:34.464Z,98952.09
2022-11-24T13:32:29.232Z,98953.84
2022-11-24T13:35:13.711Z,98948.59
2022-11-24T13:37:42.077Z,98953.91
2022-11-24T13:40:12.179Z,98953.25
2022-11-24T13:42:54.425Z,98951.31
2022-11-24T13:45:39.858Z,98948.81
2022-11-24T13:48:22.475Z,98946.13
2022-11-24T13:50:50.071Z,98947.81
2022-11-24T13:53:32.176Z,98945.63
2022-11-24T13:56:14.307Z,98943.97
2022-11-24T13:58:46.534Z,98944.81
2022-11-24T14:01:16.487Z,98949.28
2022-11-24T14:04:33.648Z,98951.97
2022-11-24T14:07:08.699Z,98952.97
2022-11-24T14:09:39.016Z,98958.16
2022-11-24T14:12:16.898Z,98949.41
2022-11-24T14:15:13.925Z,98952.16
2022-11-24T14:17:43.158Z,98964.34
2022-11-24T14:20:29.674Z,98962.56
2022-11-24T14:22:58.443Z,98960.66
2022-11-24T14:25:32.566Z,98967.44
2022-11-24T14:28:01.135Z,98962.50
2022-11-24T14:30:28.835Z,98967.81
2022-11-24T14:33:00.487Z,98971.88
2022-11-24T14:35:44.445Z,98966.75
2022-11-24T14:38:13.180Z,98970.91
2022-11-24T14:40:53.473Z,98980.22
2022-11-24T14:43:27.100Z,98978.53
2022-11-24T14:46:00.387Z,98986.47
2022-11-24T14:48:33.747Z,98990.84
2022-11-24T14:51:18.759Z,98997.66
2022-11-24T14:53:50.322Z,99002.81
2022-11-24T14:56:27.950Z,98997.47
2022-11-24T14:58:59.028Z,98994.88
2022-11-24T15:01:33.298Z,98985.06
2022-11-24T15:04:39.005Z,98986.66
2022-11-24T15:07:31.928Z,98998.03
2022-11-24T15:10:02.243Z,98997.00
2022-11-24T15:12:31.129Z,98997.72
2022-11-24T15:15:03.425Z,98994.88
2022-11-24T15:17:31.320Z,99005.13
2022-11-24T15:20:03.783Z,99011.06
2022-11-24T15:22:40.700Z,99004.06
2022-11-24T15:25:26.448Z,99009.13
2022-11-24T15:27:53.694Z,99002.94
2022-11-24T15:30:21.418Z,99007.28
2022-11-24T15:32:59.755Z,99004.59
2022-11-24T15:35:33.929Z,99009.72
2022-11-24T15:38:01.465Z,99006.16
2022-11-24T15:40:28.880Z,99007.16
2022-11-24T15:43:00.780Z,98999.38
2022-11-24T15:45:34.803Z,98997.59
2022-11-24T15:48:02.112Z,99006.28
2022-11-24T15:50:29.831Z,99005.72
2022-11-24T15:52:58.037Z,99010.41
2022-11-24T15:55:25.481Z,99015.50
2022-11-24T15:57:53.191Z,99016.03
2022-11-24T16:00:23.668Z,99013.38
2022-11-24T16:02:51.427Z,99016.16
2022-11-24T16:05:19.118Z,99005.56
2022-11-24T16:07:46.492Z,99002.00
2022-11-24T16:10:36.354Z,99004.09
2022-11-24T16:13:06.624Z,99011.97
2022-11-24T16:15:34.512Z,99013.53
2022-11-24T16:18:08.498Z,99009.19
2022-11-24T16:20:38.577Z,99007.41
2022-11-24T16:23:08.095Z,99002.19
2022-11-24T16:25:38.568Z,99005.53
2022-11-24T16:28:08.886Z,99012.41
2022-11-24T16:30:39.828Z,99008.13
2022-11-24T16:33:12.700Z,99014.72
2022-11-24T16:35:42.875Z,99020.44
2022-11-24T16:38:23.031Z,99022.94
2022-11-24T16:40:57.053Z,99026.38
2022-11-24T16:43:27.583Z,99035.84
2022-11-24T16:46:20.471Z,99034.00
2022-11-24T16:48:50.134Z,99038.34
2022-11-24T16:51:18.991Z,99032.22
2022-11-24T16:53:47.074Z,99029.56
2022-11-24T16:56:16.706Z,99042.63
2022-11-24T16:58:44.442Z,99043.59
2022-11-24T17:01:13.641Z,99035.66
2022-11-24T17:03:41.299Z,99048.78
2022-11-24T17:06:13.432Z,99047.03
2022-11-24T17:08:41.563Z,99048.72
2022-11-24T17:11:20.337Z,99050.44
2022-11-24T17:13:49.332Z,99061.72
2022-11-24T17:16:21.718Z,99064.41
2022-11-24T17:18:56.938Z,99069.56
2022-11-24T17:21:28.065Z,99070.47
2022-11-24T17:23:58.870Z,99076.47
2022-11-24T17:26:28.086Z,99080.84
2022-11-24T17:28:56.228Z,99073.88
2022-11-24T17:31:27.660Z,99074.75
2022-11-24T17:33:57.029Z,99073.88
2022-11-24T17:36:25.477Z,99076.53
2022-11-24T17:38:53.483Z,99072.22
2022-11-24T17:41:22.168Z,99072.16
2022-11-24T17:43:55.899Z,99075.69
2022-11-24T17:46:24.779Z,99077.41
2022-11-24T17:48:53.005Z,99080.88
2022-11-24T17:51:23.020Z,99076.53
2022-11-24T17:53:52.491Z,99080.00
2022-11-24T17:56:23.978Z,99080.00
2022-11-24T17:58:59.315Z,99076.50
2022-11-24T18:01:30.339Z,99073.91
2022-11-24T18:03:59.306Z,99073.91
2022-11-24T18:06:29.058Z,99061.75
2022-11-24T18:08:58.272Z,99077.44
2022-11-24T18:11:31.531Z,99069.75
2022-11-24T18:14:03.043Z,99075.88
2022-11-24T18:16:35.380Z,99082.72
2022-11-24T18:19:10.161Z,99077.50
2022-11-24T18:21:42.583Z,99092.22
2022-11-24T18:24:12.415Z,99085.31
2022-11-24T18:26:42.213Z,99090.53
2022-11-24T18:29:11.145Z,99087.03
2022-11-24T18:31:40.008Z,99094.00
2022-11-24T18:34:07.928Z,99095.78
2022-11-24T18:36:36.666Z,99097.44
2022-11-24T18:39:09.994Z,99102.69
2022-11-24T18:41:38.664Z,99098.44
2022-11-24T18:44:08.769Z,99101.09
2022-11-24T18:46:37.575Z,99108.31
2022-11-24T18:49:06.572Z,99103.28
2022-11-24T18:51:34.189Z,99103.91
2022-11-24T18:54:03.624Z,99104.91
2022-11-24T18:56:31.827Z,99104.09
2022-11-24T18:59:00.242Z,99098.69
2022-11-24T19:01:29.297Z,99096.00
2022-11-24T19:03:59.313Z,99095.06
2022-11-24T19:06:35.590Z,99104.59
2022-11-24T19:09:09.628Z,99106.34
2022-11-24T19:11:39.185Z,99109.81
